Duplessis, Louisiana
Current Conditions -  °F | °C
As of 8:55 AM on Wednesday 26 Nov 2014 (Local Time) from KL38 Reporting Station
Clear Clear  
Wind Chill: 50°   Ceiling: Unl
Heat Index: 50°   Visibility: 10mi
Dew Point: 40°   Wind: 3mph
Humidity: 67%   Direction: 150°SSE
Pressure: 30.28"   Gusts: NA
Location:  30.27°N, 90.94°W
Report Text: KL38 261455Z AUTO 15003KT 10SM CLR 10/04 A3028 RMK AO2 T01020043
Loading
Personal Weather Stations






























Interactive Weather Map New forecast layout! Learn more

10-Day Weather Forecast

Advertisements
Track Severe Weather on mobile